Time;durP1;ratioP1;P1;durP2;ratioP2;P2;SDS_P1;SDS_P2;PMS_P1;PMS_P2;Temp;Humidity;BMP_temperature;BMP_pressure;BME280_temperature;BME280_humidity;BME280_pressure;Samples;Min_cycle;Max_cycle;Signal;HPM_P1;HPM_P2
2023/12/24 00:01:13;;;;;;;;;1.75;1.75;;;;;10.03;89.35;100590.34;4946786;28;10027;-68
2023/12/24 00:03:40;;;;;;;;;1.00;1.00;;;;;9.99;89.58;100581.00;4954380;28;9886;-67
2023/12/24 00:06:07;;;;;;;;;1.00;1.00;;;;;9.98;89.32;100573.97;4937710;28;9791;-67
2023/12/24 00:08:35;;;;;;;;;1.00;0.00;;;;;10.03;88.76;100569.66;4955169;28;9691;-67
2023/12/24 00:11:02;;;;;;;;;1.25;1.00;;;;;10.00;88.74;100577.28;4954253;28;9656;-67
2023/12/24 00:13:28;;;;;;;;;2.75;0.75;;;;;9.97;88.88;100564.25;4953895;28;9790;-68
2023/12/24 00:15:55;;;;;;;;;1.00;1.00;;;;;9.94;89.33;100559.25;4954365;28;9794;-66
2023/12/24 00:18:21;;;;;;;;;1.00;1.00;;;;;9.93;89.07;100557.59;4930032;28;9787;-67
2023/12/24 00:20:48;;;;;;;;;2.00;0.50;;;;;9.95;89.25;100547.47;4940761;28;9722;-66
2023/12/24 00:23:14;;;;;;;;;0.00;0.00;;;;;9.94;89.42;100548.50;4954254;28;9833;-66
2023/12/24 00:25:41;;;;;;;;;0.75;0.75;;;;;9.93;88.94;100550.38;4934519;28;9683;-66
2023/12/24 00:28:08;;;;;;;;;2.25;1.25;;;;;9.94;89.49;100545.81;4954970;28;9733;-66
2023/12/24 00:30:35;;;;;;;;;0.25;0.25;;;;;10.05;89.57;100542.59;4946704;28;9772;-68
2023/12/24 00:33:02;;;;;;;;;0.00;0.00;;;;;10.02;89.63;100540.28;4936999;28;9799;-67
2023/12/24 00:35:31;;;;;;;;;1.75;1.75;;;;;9.99;90.83;100528.06;4950302;28;9724;-66
2023/12/24 00:37:58;;;;;;;;;1.00;1.00;;;;;9.95;91.13;100555.53;4934749;28;9937;-66
2023/12/24 00:40:25;;;;;;;;;0.00;0.00;;;;;9.87;92.18;100540.38;4928858;29;9905;-66
2023/12/24 00:42:52;;;;;;;;;1.25;0.00;;;;;9.89;92.17;100536.47;4944337;28;9735;-67
2023/12/24 00:45:19;;;;;;;;;0.50;0.50;;;;;9.85;92.37;100534.41;4935180;28;9757;-68
2023/12/24 00:47:46;;;;;;;;;0.75;0.00;;;;;9.83;92.98;100533.75;4936458;28;9790;-66
2023/12/24 00:50:14;;;;;;;;;0.75;0.00;;;;;9.78;93.46;100534.34;4936930;28;9899;-66
2023/12/24 00:52:41;;;;;;;;;0.00;0.00;;;;;9.81;93.77;100528.56;4954075;28;9767;-69
2023/12/24 00:55:08;;;;;;;;;1.00;0.00;;;;;9.76;93.59;100530.16;4940207;28;9737;-67
2023/12/24 00:57:36;;;;;;;;;0.50;0.50;;;;;9.77;93.99;100526.47;4928103;28;9855;-70
2023/12/24 01:00:05;;;;;;;;;0.00;0.00;;;;;9.80;93.83;100531.44;4946510;28;9804;-66
2023/12/24 01:02:32;;;;;;;;;1.00;0.00;;;;;9.78;94.31;100522.75;4935256;28;9781;-67
2023/12/24 01:04:58;;;;;;;;;1.00;1.00;;;;;9.74;94.04;100532.25;4947674;28;9713;-66
2023/12/24 01:07:25;;;;;;;;;1.50;0.00;;;;;9.78;94.41;100530.81;4951290;28;10070;-67
2023/12/24 01:09:51;;;;;;;;;1.75;1.75;;;;;9.77;94.48;100530.00;4948803;28;9869;-69
2023/12/24 01:12:18;;;;;;;;;2.75;1.00;;;;;9.71;95.04;100535.31;4935769;28;9889;-67
2023/12/24 01:14:44;;;;;;;;;2.00;0.25;;;;;9.72;95.64;100524.34;4920667;28;9953;-66
2023/12/24 01:17:13;;;;;;;;;1.00;0.00;;;;;9.72;95.53;100532.41;4936683;28;9860;-67
2023/12/24 01:19:40;;;;;;;;;2.25;1.00;;;;;9.71;95.31;100520.00;4936511;28;9915;-66
2023/12/24 01:22:07;;;;;;;;;1.00;1.00;;;;;9.74;95.53;100514.25;4953329;28;10008;-67
2023/12/24 01:24:33;;;;;;;;;2.00;0.75;;;;;9.69;95.70;100524.78;4950041;28;9811;-65
2023/12/24 01:27:00;;;;;;;;;1.00;1.00;;;;;9.65;96.21;100505.53;4933664;28;9911;-69
2023/12/24 01:29:26;;;;;;;;;1.00;1.00;;;;;9.70;96.19;100509.47;4952474;28;9844;-67
2023/12/24 01:31:53;;;;;;;;;0.75;0.75;;;;;9.65;96.65;100500.13;4952219;28;9898;-66
2023/12/24 01:34:20;;;;;;;;;1.00;0.50;;;;;9.53;97.55;100493.66;4951967;28;9959;-66
2023/12/24 01:36:46;;;;;;;;;2.50;2.00;;;;;9.55;97.83;100496.97;4935115;28;9968;-67
2023/12/24 01:39:14;;;;;;;;;1.00;1.00;;;;;9.58;98.43;100477.75;4950692;28;10087;-65
2023/12/24 01:41:40;;;;;;;;;1.00;0.00;;;;;9.61;98.32;100485.44;4950420;28;10023;-69
2023/12/24 01:44:07;;;;;;;;;4.50;0.75;;;;;9.63;97.89;100490.59;4935329;28;9997;-66
2023/12/24 01:46:34;;;;;;;;;2.75;1.75;;;;;9.56;97.90;100481.66;4928902;28;9798;-66
2023/12/24 01:49:01;;;;;;;;;1.00;1.00;;;;;9.57;98.63;100473.41;4951280;28;10243;-66
2023/12/24 01:51:31;;;;;;;;;0.25;0.25;;;;;9.62;98.74;100472.81;4920315;28;9860;-67
2023/12/24 01:53:58;;;;;;;;;2.00;2.00;;;;;9.54;98.63;100472.97;4950117;28;9981;-70
2023/12/24 01:56:30;;;;;;;;;1.00;1.00;;;;;9.46;99.49;100462.38;4943697;28;10130;-68
2023/12/24 01:58:58;;;;;;;;;2.50;2.00;;;;;9.49;100.00;100449.38;4944721;28;10061;-69
2023/12/24 02:01:26;;;;;;;;;2.00;0.75;;;;;9.51;99.94;100441.13;4934744;28;10065;-66
2023/12/24 02:03:53;;;;;;;;;1.00;1.00;;;;;9.53;100.00;100431.03;4948321;28;9968;-67
2023/12/24 02:06:21;;;;;;;;;2.00;2.00;;;;;9.52;100.00;100434.72;4940409;29;9975;-67
2023/12/24 02:08:48;;;;;;;;;1.25;1.25;;;;;9.49;100.00;100429.75;4950994;28;10367;-66
2023/12/24 02:11:16;;;;;;;;;1.00;1.00;;;;;9.48;100.00;100433.44;4947940;28;10743;-66
2023/12/24 02:13:44;;;;;;;;;2.50;2.00;;;;;9.50;100.00;100434.09;4949836;28;10035;-66
2023/12/24 02:16:14;;;;;;;;;2.00;1.00;;;;;9.54;100.00;100448.81;4950432;28;10058;-67
2023/12/24 02:18:41;;;;;;;;;0.75;0.75;;;;;9.60;100.00;100458.75;4948265;28;9925;-66
2023/12/24 02:21:08;;;;;;;;;1.50;1.00;;;;;9.58;100.00;100458.13;4932754;28;9976;-67
2023/12/24 02:23:34;;;;;;;;;3.00;1.00;;;;;9.49;100.00;100453.94;4934926;28;10030;-69
2023/12/24 02:26:11;;;;;;;;;1.50;1.00;;;;;9.52;100.00;100449.00;4933499;28;10064;-66
2023/12/24 02:28:41;;;;;;;;;1.50;1.50;;;;;9.51;100.00;100444.63;4934701;28;10894;-66
2023/12/24 02:31:11;;;;;;;;;1.75;1.75;;;;;9.56;100.00;100442.22;4950331;28;10056;-66
2023/12/24 02:33:41;;;;;;;;;1.75;1.75;;;;;9.51;100.00;100441.94;4949067;28;10519;-66
2023/12/24 02:36:12;;;;;;;;;2.25;2.25;;;;;9.54;100.00;100443.44;4930173;28;10097;-67
2023/12/24 02:38:39;;;;;;;;;3.00;1.00;;;;;9.54;100.00;100430.00;4951998;28;9950;-67
2023/12/24 02:41:06;;;;;;;;;3.50;2.50;;;;;9.60;100.00;100424.66;4949958;28;9953;-69
2023/12/24 02:43:34;;;;;;;;;2.75;2.00;;;;;9.61;100.00;100415.56;4941077;29;10250;-67
2023/12/24 02:46:01;;;;;;;;;2.00;2.00;;;;;9.64;100.00;100419.69;4942963;28;9884;-67
2023/12/24 02:48:28;;;;;;;;;4.50;3.00;;;;;9.64;100.00;100420.56;4933101;28;10070;-66
2023/12/24 02:50:55;;;;;;;;;2.00;2.00;;;;;9.68;100.00;100423.66;4949336;28;10160;-67
2023/12/24 02:53:21;;;;;;;;;2.00;2.00;;;;;9.66;100.00;100398.84;4951034;28;9942;-67
2023/12/24 02:55:48;;;;;;;;;1.75;1.50;;;;;9.67;100.00;100411.25;4932639;28;9997;-66
2023/12/24 02:58:16;;;;;;;;;0.75;0.75;;;;;9.68;100.00;100393.25;4947487;29;9866;-66
2023/12/24 03:00:42;;;;;;;;;1.00;1.00;;;;;9.67;100.00;100379.00;4932396;29;9976;-66
2023/12/24 03:03:09;;;;;;;;;0.75;0.75;;;;;9.60;100.00;100375.44;4945862;29;9706;-69
2023/12/24 03:05:35;;;;;;;;;1.50;1.50;;;;;9.62;100.00;100382.28;4933854;29;9862;-66
2023/12/24 03:08:02;;;;;;;;;0.00;0.00;;;;;9.64;100.00;100374.88;4927368;29;10513;-67
2023/12/24 03:10:29;;;;;;;;;0.00;0.00;;;;;9.67;100.00;100389.75;4944046;29;10228;-66
2023/12/24 03:12:55;;;;;;;;;1.00;1.00;;;;;9.59;100.00;100368.41;4950676;29;9777;-68
2023/12/24 03:15:22;;;;;;;;;0.00;0.00;;;;;9.59;100.00;100376.47;4949458;29;10476;-66
2023/12/24 03:17:48;;;;;;;;;0.00;0.00;;;;;9.59;100.00;100360.34;4950461;28;9670;-65
2023/12/24 03:20:15;;;;;;;;;0.25;0.00;;;;;9.66;100.00;100353.16;4949873;29;9604;-67
2023/12/24 03:22:42;;;;;;;;;1.00;1.00;;;;;9.71;100.00;100368.69;4939785;29;9927;-66
2023/12/24 03:25:08;;;;;;;;;0.00;0.00;;;;;9.71;100.00;100363.31;4933077;29;10480;-67
2023/12/24 03:27:34;;;;;;;;;0.00;0.00;;;;;9.66;100.00;100358.53;4948669;28;9766;-66
2023/12/24 03:30:01;;;;;;;;;0.25;0.25;;;;;9.59;100.00;100352.28;4949657;29;10747;-66
2023/12/24 03:32:27;;;;;;;;;0.75;0.00;;;;;9.60;100.00;100340.50;4950655;29;9847;-68
2023/12/24 03:34:54;;;;;;;;;0.00;0.00;;;;;9.61;100.00;100337.63;4918040;29;9892;-67
2023/12/24 03:37:21;;;;;;;;;1.75;1.00;;;;;9.70;100.00;100334.78;4951815;28;10455;-66
2023/12/24 03:39:47;;;;;;;;;1.00;1.00;;;;;9.76;100.00;100344.72;4949864;29;9811;-67
2023/12/24 03:42:13;;;;;;;;;1.00;1.00;;;;;9.74;100.00;100350.28;4933840;29;9914;-66
2023/12/24 03:44:40;;;;;;;;;1.00;1.00;;;;;9.73;100.00;100345.97;4932300;28;9860;-69
2023/12/24 03:47:06;;;;;;;;;0.00;0.00;;;;;9.75;100.00;100349.25;4949675;28;9863;-66
2023/12/24 03:49:33;;;;;;;;;3.00;1.75;;;;;9.78;100.00;100332.75;4934752;29;9907;-66
2023/12/24 03:51:59;;;;;;;;;1.00;1.00;;;;;9.77;100.00;100357.13;4945096;29;9872;-65
2023/12/24 03:54:26;;;;;;;;;2.75;0.75;;;;;9.73;100.00;100345.97;4951618;28;9897;-65
2023/12/24 03:56:53;;;;;;;;;1.00;1.00;;;;;9.74;100.00;100339.53;4954472;28;10866;-67
2023/12/24 03:59:20;;;;;;;;;1.00;1.00;;;;;9.75;100.00;100343.06;4958296;28;9783;-66
2023/12/24 04:01:46;;;;;;;;;1.25;1.25;;;;;9.76;100.00;100342.03;4936060;28;9852;-66
2023/12/24 04:04:13;;;;;;;;;1.00;1.00;;;;;9.70;100.00;100340.97;4948768;28;10031;-68
2023/12/24 04:06:39;;;;;;;;;2.00;2.00;;;;;9.74;100.00;100336.84;4937044;28;10657;-70
2023/12/24 04:09:08;;;;;;;;;3.00;1.50;;;;;9.82;100.00;100343.91;4948117;28;10141;-67
2023/12/24 04:11:35;;;;;;;;;1.50;1.50;;;;;9.78;100.00;100348.88;4953703;28;9898;-71
2023/12/24 04:14:01;;;;;;;;;1.00;1.00;;;;;9.83;100.00;100351.78;4952002;28;9786;-67
2023/12/24 04:16:28;;;;;;;;;4.25;1.25;;;;;9.82;100.00;100349.28;4951439;28;9923;-67
2023/12/24 04:18:54;;;;;;;;;1.75;1.00;;;;;9.81;100.00;100343.09;4928652;28;10123;-67
2023/12/24 04:21:21;;;;;;;;;1.00;1.00;;;;;9.83;100.00;100346.41;4936668;28;9806;-67
2023/12/24 04:23:48;;;;;;;;;1.25;1.25;;;;;9.82;100.00;100343.91;4945642;28;9957;-66
2023/12/24 04:26:14;;;;;;;;;1.00;1.00;;;;;9.82;100.00;100346.59;4937059;28;9814;-70
2023/12/24 04:28:41;;;;;;;;;0.75;0.75;;;;;9.80;100.00;100324.47;4937065;28;9901;-71
2023/12/24 04:31:11;;;;;;;;;2.00;2.00;;;;;9.77;100.00;100333.78;4936728;28;9960;-65
2023/12/24 04:33:37;;;;;;;;;1.00;1.00;;;;;9.74;100.00;100323.41;4954140;28;9743;-68
2023/12/24 04:36:04;;;;;;;;;1.00;0.00;;;;;9.80;100.00;100321.78;4936190;28;9704;-70
2023/12/24 04:38:30;;;;;;;;;1.75;0.00;;;;;9.90;100.00;100316.84;4937422;28;9844;-70
2023/12/24 04:40:57;;;;;;;;;1.00;1.00;;;;;9.83;100.00;100314.13;4936571;28;9880;-71
2023/12/24 04:43:23;;;;;;;;;1.00;1.00;;;;;9.81;100.00;100299.25;4961205;28;9877;-68
2023/12/24 04:45:50;;;;;;;;;1.00;1.00;;;;;9.81;100.00;100312.69;4954388;28;9775;-70
2023/12/24 04:48:16;;;;;;;;;4.00;1.75;;;;;9.85;100.00;100300.50;4934987;28;9795;-69
2023/12/24 04:50:43;;;;;;;;;0.75;0.50;;;;;9.90;100.00;100308.78;4951942;28;10740;-70
2023/12/24 04:53:10;;;;;;;;;1.25;1.25;;;;;9.94;100.00;100307.34;4928155;28;9859;-69
2023/12/24 04:55:36;;;;;;;;;2.00;1.75;;;;;9.96;100.00;100309.81;4947546;28;9957;-70
2023/12/24 04:58:03;;;;;;;;;5.00;2.00;;;;;9.93;100.00;100305.69;4935613;28;9864;-70
2023/12/24 05:00:30;;;;;;;;;2.75;1.25;;;;;9.90;100.00;100293.47;4934873;28;9970;-70
2023/12/24 05:02:56;;;;;;;;;6.75;2.75;;;;;9.95;100.00;100297.41;4933463;28;10083;-70
2023/12/24 05:05:24;;;;;;;;;2.00;1.75;;;;;9.91;100.00;100308.56;4935542;28;9879;-71
2023/12/24 05:07:51;;;;;;;;;1.00;1.00;;;;;9.91;100.00;100302.38;4934148;28;9999;-70
2023/12/24 05:10:17;;;;;;;;;3.00;2.00;;;;;9.91;100.00;100292.44;4934644;28;9866;-70
2023/12/24 05:12:44;;;;;;;;;2.00;1.75;;;;;9.92;100.00;100295.97;4951237;28;9776;-70
2023/12/24 05:15:10;;;;;;;;;2.00;2.00;;;;;9.97;100.00;100292.69;4934080;28;9977;-71
2023/12/24 05:17:37;;;;;;;;;4.50;2.00;;;;;9.96;100.00;100293.69;4952073;28;10613;-69
2023/12/24 05:20:05;;;;;;;;;1.00;1.00;;;;;10.00;100.00;100294.94;4948980;28;9738;-70
2023/12/24 05:22:31;;;;;;;;;5.00;2.25;;;;;10.01;100.00;100300.13;4934843;28;9806;-70
2023/12/24 05:24:58;;;;;;;;;2.00;2.00;;;;;10.01;100.00;100296.63;4935948;28;9889;-69
2023/12/24 05:27:24;;;;;;;;;3.25;2.00;;;;;10.00;100.00;100287.69;4946693;28;9872;-69
2023/12/24 05:29:51;;;;;;;;;3.00;2.00;;;;;10.06;100.00;100297.66;4960504;28;9832;-67
2023/12/24 05:32:17;;;;;;;;;1.50;1.50;;;;;10.12;100.00;100287.94;4954931;28;9795;-68
2023/12/24 05:34:45;;;;;;;;;3.50;1.75;;;;;10.05;100.00;100287.13;4951901;28;9702;-70
2023/12/24 05:37:12;;;;;;;;;2.25;2.25;;;;;10.05;100.00;100287.94;4929448;28;9878;-70
2023/12/24 05:39:44;;;;;;;;;2.00;2.00;;;;;10.09;100.00;100261.47;4952525;28;10063;-70
2023/12/24 05:42:11;;;;;;;;;1.50;1.00;;;;;10.16;100.00;100270.34;4943981;28;9901;-71
2023/12/24 05:44:37;;;;;;;;;5.00;2.00;;;;;10.15;100.00;100264.16;4948969;28;9796;-70
2023/12/24 05:47:04;;;;;;;;;7.50;6.00;;;;;10.14;100.00;100259.81;4951430;28;9768;-69
2023/12/24 05:49:31;;;;;;;;;3.00;2.00;;;;;10.10;100.00;100250.50;4949315;28;9950;-70
2023/12/24 05:51:57;;;;;;;;;4.50;3.00;;;;;10.17;100.00;100253.19;4950206;28;10984;-70
2023/12/24 05:54:24;;;;;;;;;5.25;4.25;;;;;10.15;100.00;100241.81;4951162;28;9880;-69
2023/12/24 05:56:50;;;;;;;;;3.25;1.75;;;;;10.15;100.00;100252.56;4934430;28;9803;-69
2023/12/24 05:59:16;;;;;;;;;2.75;2.75;;;;;10.21;100.00;100245.53;4943963;28;9966;-70
2023/12/24 06:01:43;;;;;;;;;5.50;2.75;;;;;10.18;100.00;100249.47;4956729;28;10141;-69
2023/12/24 06:04:10;;;;;;;;;4.50;3.00;;;;;10.15;100.00;100257.94;4952963;28;9843;-70
2023/12/24 06:06:42;;;;;;;;;3.00;3.00;;;;;10.17;100.00;100263.97;4926897;28;10692;-69
2023/12/24 06:09:09;;;;;;;;;2.25;2.25;;;;;10.25;100.00;100244.97;4947603;28;9883;-70
2023/12/24 06:11:35;;;;;;;;;5.00;3.50;;;;;10.30;100.00;100260.47;4954682;28;10639;-70
2023/12/24 06:14:02;;;;;;;;;8.25;6.00;;;;;10.28;100.00;100262.53;4955697;28;9777;-69
2023/12/24 06:16:29;;;;;;;;;2.75;2.75;;;;;10.27;100.00;100253.63;4948883;28;9858;-68
2023/12/24 06:18:55;;;;;;;;;1.50;1.25;;;;;10.29;100.00;100259.66;4949003;28;9983;-70
2023/12/24 06:21:22;;;;;;;;;5.25;3.75;;;;;10.26;100.00;100260.06;4935681;28;9950;-70
2023/12/24 06:23:50;;;;;;;;;5.50;4.50;;;;;10.26;100.00;100252.00;4943695;28;9870;-70
2023/12/24 06:26:16;;;;;;;;;5.25;5.25;;;;;10.20;100.00;100252.78;4947688;28;9998;-69
2023/12/24 06:28:43;;;;;;;;;4.50;4.50;;;;;10.22;100.00;100258.78;4919600;28;9970;-70
2023/12/24 06:31:10;;;;;;;;;7.00;5.75;;;;;10.25;100.00;100271.88;4929164;28;9636;-69
2023/12/24 06:33:36;;;;;;;;;5.50;2.00;;;;;10.29;100.00;100261.50;4944453;28;10028;-70
2023/12/24 06:36:03;;;;;;;;;5.25;2.00;;;;;10.30;100.00;100264.00;4948516;28;10460;-68
2023/12/24 06:38:30;;;;;;;;;9.75;7.00;;;;;10.29;100.00;100258.81;4948798;28;9696;-70
2023/12/24 06:40:56;;;;;;;;;4.50;4.50;;;;;10.27;100.00;100255.50;4947876;28;9892;-70
2023/12/24 06:43:22;;;;;;;;;8.50;3.00;;;;;10.34;100.00;100254.47;4932537;28;9735;-71
2023/12/24 06:45:49;;;;;;;;;9.00;3.75;;;;;10.32;100.00;100250.31;4934743;28;9838;-69
2023/12/24 06:48:16;;;;;;;;;3.00;2.25;;;;;10.37;100.00;100256.75;4949420;28;9806;-70
2023/12/24 06:50:42;;;;;;;;;4.00;4.00;;;;;10.32;100.00;100253.84;4929726;28;9811;-70
2023/12/24 06:53:09;;;;;;;;;7.00;2.00;;;;;10.35;100.00;100253.44;4933082;28;10848;-70
2023/12/24 06:55:35;;;;;;;;;3.50;3.00;;;;;10.32;100.00;100256.53;4949399;28;9916;-70
2023/12/24 06:58:03;;;;;;;;;2.25;2.25;;;;;10.36;100.00;100248.88;4951356;28;9691;-71
2023/12/24 07:00:30;;;;;;;;;1.25;1.25;;;;;10.39;100.00;100256.53;4934129;29;9902;-69
2023/12/24 07:02:56;;;;;;;;;2.00;2.00;;;;;10.43;100.00;100259.66;4946404;29;9651;-70
2023/12/24 07:05:23;;;;;;;;;2.75;1.50;;;;;10.36;100.00;100249.69;4948763;29;9698;-70
2023/12/24 07:07:49;;;;;;;;;4.00;1.75;;;;;10.41;100.00;100251.75;4948322;28;9698;-71
2023/12/24 07:10:16;;;;;;;;;1.00;1.00;;;;;10.43;100.00;100251.56;4945522;29;9580;-69
2023/12/24 07:12:43;;;;;;;;;5.75;2.00;;;;;10.45;100.00;100253.03;4946678;29;9495;-70
2023/12/24 07:15:09;;;;;;;;;4.00;4.00;;;;;10.39;100.00;100257.38;4950992;29;9786;-71
2023/12/24 07:17:36;;;;;;;;;1.75;1.50;;;;;10.42;100.00;100256.13;4949912;28;9814;-71
2023/12/24 07:20:03;;;;;;;;;7.00;5.00;;;;;10.42;100.00;100264.19;4935081;29;9629;-70
2023/12/24 07:22:30;;;;;;;;;5.25;2.50;;;;;10.45;100.00;100260.25;4931364;29;12193;-70
2023/12/24 07:24:56;;;;;;;;;5.00;2.50;;;;;10.49;100.00;100254.28;4946375;28;9872;-68
2023/12/24 07:27:23;;;;;;;;;2.75;2.75;;;;;10.46;100.00;100235.84;4962699;28;9782;-70
2023/12/24 07:29:49;;;;;;;;;2.25;1.00;;;;;10.49;100.00;100238.13;4965436;28;9663;-69
2023/12/24 07:32:15;;;;;;;;;6.00;2.00;;;;;10.52;100.00;100220.72;4942278;28;10578;-70
2023/12/24 07:34:42;;;;;;;;;4.25;3.00;;;;;10.50;100.00;100234.41;4952777;28;9749;-70
2023/12/24 07:37:08;;;;;;;;;6.00;2.00;;;;;10.54;100.00;100230.25;4948098;28;9719;-69
2023/12/24 07:39:35;;;;;;;;;2.50;0.75;;;;;10.54;100.00;100227.56;4937793;28;9778;-71
2023/12/24 07:42:02;;;;;;;;;1.75;0.50;;;;;10.59;100.00;100226.91;4954799;28;9732;-69
2023/12/24 07:44:28;;;;;;;;;5.50;2.00;;;;;10.59;100.00;100237.69;4936836;28;9513;-70
2023/12/24 07:46:55;;;;;;;;;2.25;1.75;;;;;10.58;100.00;100239.56;4953836;28;9586;-69
2023/12/24 07:49:22;;;;;;;;;2.00;2.00;;;;;10.56;100.00;100238.09;4952704;28;9571;-71
2023/12/24 07:51:48;;;;;;;;;1.75;1.75;;;;;10.59;100.00;100233.13;4948714;28;9616;-70
2023/12/24 07:54:15;;;;;;;;;2.00;2.00;;;;;10.61;100.00;100220.31;4951507;28;9494;-71
2023/12/24 07:56:41;;;;;;;;;1.25;1.25;;;;;10.68;100.00;100232.91;4951804;28;9532;-70
2023/12/24 07:59:08;;;;;;;;;5.00;2.25;;;;;10.66;100.00;100233.13;4950017;28;9585;-72
2023/12/24 08:01:37;;;;;;;;;2.75;1.75;;;;;10.66;100.00;100227.75;4938448;28;9574;-72
2023/12/24 08:04:05;;;;;;;;;3.00;2.00;;;;;10.63;100.00;100215.53;4935032;28;9731;-70
2023/12/24 08:06:31;;;;;;;;;3.25;3.25;;;;;10.58;100.00;100214.50;4951615;28;9635;-69
2023/12/24 08:08:58;;;;;;;;;2.50;2.50;;;;;10.63;100.00;100215.53;4948903;28;9582;-71
2023/12/24 08:11:25;;;;;;;;;1.75;1.75;;;;;10.71;100.00;100219.03;4958124;28;9634;-71
2023/12/24 08:13:52;;;;;;;;;1.50;1.50;;;;;10.68;100.00;100225.66;4966036;28;9631;-71
2023/12/24 08:16:18;;;;;;;;;6.00;2.25;;;;;10.68;100.00;100244.50;4971892;28;9651;-69
2023/12/24 08:18:45;;;;;;;;;1.50;1.25;;;;;10.68;100.00;100244.50;4952927;28;9786;-70
2023/12/24 08:21:12;;;;;;;;;3.00;2.00;;;;;10.70;100.00;100237.06;4962683;28;9770;-69
2023/12/24 08:23:38;;;;;;;;;4.75;2.00;;;;;10.67;100.00;100240.16;4955824;28;9769;-69
2023/12/24 08:26:05;;;;;;;;;3.00;2.00;;;;;10.70;100.00;100223.59;4953111;28;9538;-70
2023/12/24 08:28:32;;;;;;;;;3.00;3.00;;;;;10.72;100.00;100228.75;4952347;28;9625;-70
2023/12/24 08:31:00;;;;;;;;;3.50;2.00;;;;;10.74;100.00;100221.31;4939546;28;9631;-70
2023/12/24 08:33:27;;;;;;;;;3.25;2.25;;;;;10.77;100.00;100215.50;4948783;28;9652;-71
2023/12/24 08:35:54;;;;;;;;;6.00;3.25;;;;;10.81;100.00;100228.31;4957641;28;9508;-68
2023/12/24 08:38:20;;;;;;;;;1.25;1.00;;;;;10.84;100.00;100233.28;4962299;28;9710;-70
2023/12/24 08:40:47;;;;;;;;;3.50;3.50;;;;;10.77;100.00;100221.69;4961613;28;9643;-70
2023/12/24 08:43:13;;;;;;;;;2.50;2.25;;;;;10.76;100.00;100214.66;4959591;28;10173;-64
2023/12/24 08:45:40;;;;;;;;;2.00;2.00;;;;;10.95;100.00;100225.59;4946160;28;9709;-71
2023/12/24 08:48:08;;;;;;;;;4.00;1.50;;;;;10.94;100.00;100218.53;4950740;28;10480;-68
2023/12/24 08:50:38;;;;;;;;;2.75;2.75;;;;;10.97;100.00;100223.50;4928206;28;9556;-70
2023/12/24 08:53:08;;;;;;;;;1.50;1.50;;;;;10.93;100.00;100215.03;4941818;28;10290;-70
2023/12/24 08:55:34;;;;;;;;;2.00;2.00;;;;;10.87;100.00;100223.97;4953033;28;9486;-68
2023/12/24 08:58:01;;;;;;;;;2.00;2.00;;;;;10.87;100.00;100224.78;4953556;28;9591;-69
2023/12/24 09:00:27;;;;;;;;;4.00;1.75;;;;;10.87;100.00;100227.47;4953475;28;9548;-70
2023/12/24 09:02:55;;;;;;;;;5.75;2.00;;;;;10.91;100.00;100216.31;4952187;28;9567;-70
2023/12/24 09:05:22;;;;;;;;;2.00;2.00;;;;;10.91;100.00;100210.91;4952060;28;9549;-71
2023/12/24 09:07:48;;;;;;;;;3.50;3.00;;;;;10.90;100.00;100215.47;4935781;28;10243;-70
2023/12/24 09:10:15;;;;;;;;;3.00;2.00;;;;;10.86;100.00;100190.00;4953777;28;9551;-69
2023/12/24 09:12:41;;;;;;;;;2.50;2.00;;;;;10.86;100.00;100193.53;4937089;28;9635;-71
2023/12/24 09:15:08;;;;;;;;;1.75;1.00;;;;;10.87;100.00;100187.09;4936553;28;10356;-69
2023/12/24 09:17:35;;;;;;;;;2.50;2.50;;;;;10.93;100.00;100190.78;4953645;28;9575;-71
2023/12/24 09:20:02;;;;;;;;;2.00;2.00;;;;;10.95;100.00;100190.59;4952009;28;9571;-70
2023/12/24 09:22:32;;;;;;;;;2.00;1.25;;;;;10.97;100.00;100175.03;4951987;28;9767;-71
2023/12/24 09:24:58;;;;;;;;;1.25;1.25;;;;;11.04;100.00;100171.28;4936102;28;9645;-71
2023/12/24 09:27:25;;;;;;;;;2.00;2.00;;;;;11.09;100.00;100170.63;4952358;28;9402;-71
2023/12/24 09:29:52;;;;;;;;;1.00;1.00;;;;;11.09;100.00;100167.94;4953472;28;9544;-70
2023/12/24 09:32:18;;;;;;;;;3.00;2.50;;;;;11.08;100.00;100166.31;4936470;28;9476;-70
2023/12/24 09:34:45;;;;;;;;;1.00;1.00;;;;;11.16;100.00;100176.84;4952658;28;9404;-70
2023/12/24 09:37:11;;;;;;;;;1.25;1.00;;;;;11.14;100.00;100181.63;4951270;28;9555;-70
2023/12/24 09:39:38;;;;;;;;;1.00;1.00;;;;;11.21;100.00;100186.97;4952400;28;9705;-69
2023/12/24 09:42:05;;;;;;;;;4.00;3.00;;;;;11.13;100.00;100194.22;4953063;28;10303;-69
2023/12/24 09:44:31;;;;;;;;;4.00;2.00;;;;;11.17;100.00;100200.03;4952206;28;9484;-70
2023/12/24 09:46:58;;;;;;;;;3.75;3.25;;;;;11.17;100.00;100212.69;4952974;28;9478;-70
2023/12/24 09:49:24;;;;;;;;;1.00;1.00;;;;;11.21;100.00;100201.25;4952157;28;9650;-69
2023/12/24 09:51:54;;;;;;;;;3.25;1.00;;;;;11.20;100.00;100193.41;4959163;28;9543;-70
2023/12/24 09:54:21;;;;;;;;;2.00;2.00;;;;;11.23;100.00;100214.53;4952869;28;9472;-68
2023/12/24 09:56:47;;;;;;;;;2.00;1.00;;;;;11.27;100.00;100196.91;4951956;28;10183;-70
2023/12/24 09:59:14;;;;;;;;;2.00;1.00;;;;;11.29;100.00;100217.19;4935408;28;9522;-70
2023/12/24 10:01:43;;;;;;;;;3.50;2.00;;;;;11.24;100.00;100200.84;4952744;28;9462;-69
2023/12/24 10:04:11;;;;;;;;;3.00;3.00;;;;;11.22;100.00;100205.63;4952605;28;9442;-70
2023/12/24 10:06:57;;;;;;;;;1.00;1.00;;;;;11.23;100.00;100212.66;4935564;28;9414;-70
2023/12/24 10:09:42;;;;;;;;;2.67;2.00;;;;;11.27;100.00;100221.13;4935861;28;9624;-70
2023/12/24 10:12:09;;;;;;;;;2.75;2.00;;;;;11.29;100.00;100225.25;4934961;28;9500;-68
2023/12/24 10:14:37;;;;;;;;;2.25;2.00;;;;;11.31;100.00;100216.97;4952510;28;10100;-70
2023/12/24 10:17:05;;;;;;;;;6.75;2.50;;;;;11.32;100.00;100216.75;4948904;28;9545;-68
2023/12/24 10:19:32;;;;;;;;;2.00;2.00;;;;;11.30;100.00;100209.91;4959396;28;9469;-71
2023/12/24 10:22:06;;;;;;;;;1.33;0.67;;;;;11.29;100.00;100206.41;4952757;28;9533;-70
2023/12/24 10:24:40;;;;;;;;;4.00;2.00;;;;;11.31;100.00;100225.88;4934185;28;9545;-68
2023/12/24 10:27:09;;;;;;;;;5.00;2.50;;;;;11.26;100.00;100200.59;4929482;28;9622;-69
2023/12/24 10:29:40;;;;;;;;;3.00;1.00;;;;;11.31;100.00;100209.72;4952534;28;9384;-69
2023/12/24 10:32:11;;;;;;;;;5.25;3.75;;;;;11.28;100.00;100191.28;4926129;28;9686;-70
2023/12/24 10:34:39;;;;;;;;;10.25;9.50;;;;;11.34;100.00;100197.66;4934701;28;9579;-70
2023/12/24 10:37:19;;;;;;;;;2.00;2.00;;;;;11.24;100.00;100187.38;4952270;28;10699;-69
2023/12/24 10:39:46;;;;;;;;;6.75;5.50;;;;;11.20;100.00;100182.63;4934528;28;9549;-68
2023/12/24 10:42:13;;;;;;;;;2.00;1.25;;;;;11.17;100.00;100177.66;4952102;28;9793;-71
2023/12/24 10:44:39;;;;;;;;;2.25;2.00;;;;;11.18;100.00;100180.16;4951960;28;9576;-69
2023/12/24 10:47:07;;;;;;;;;6.00;3.00;;;;;11.17;100.00;100173.09;4934243;28;9696;-70
2023/12/24 10:49:34;;;;;;;;;3.00;2.00;;;;;11.22;100.00;100157.13;4935244;28;9482;-70
2023/12/24 10:52:00;;;;;;;;;2.25;2.25;;;;;11.20;100.00;100159.19;4934768;28;9562;-71
2023/12/24 10:54:27;;;;;;;;;2.00;2.00;;;;;11.17;100.00;100169.56;4951982;28;9562;-71
2023/12/24 10:57:00;;;;;;;;;4.25;2.25;;;;;11.11;100.00;100155.94;4935053;28;9555;-67
2023/12/24 10:59:49;;;;;;;;;3.00;3.00;;;;;11.12;100.00;100159.44;4932509;28;9409;-71
2023/12/24 11:02:16;;;;;;;;;3.00;1.25;;;;;11.14;100.00;100160.91;4948096;28;10226;-71
2023/12/24 11:04:48;;;;;;;;;7.25;2.00;;;;;11.09;100.00;100130.25;4958317;28;9583;-71
2023/12/24 11:07:45;;;;;;;;;3.50;2.00;;;;;11.15;100.00;100142.88;4958317;28;9542;-71
2023/12/24 11:10:40;;;;;;;;;2.25;2.00;;;;;11.25;100.00;100155.84;4941465;28;9622;-71
2023/12/24 11:13:09;;;;;;;;;1.00;1.00;;;;;11.20;100.00;100136.81;4952339;28;9715;-68
2023/12/24 11:15:41;;;;;;;;;4.00;2.00;;;;;11.16;100.00;100139.13;4958098;28;10370;-69
2023/12/24 11:18:09;;;;;;;;;2.00;2.00;;;;;11.16;100.00;100141.00;4941138;28;9560;-69
2023/12/24 11:20:41;;;;;;;;;4.00;1.00;;;;;11.20;100.00;100143.03;4958445;28;9532;-70
2023/12/24 11:23:09;;;;;;;;;1.00;1.00;;;;;11.19;100.00;100140.56;4957170;28;9500;-69
2023/12/24 11:25:39;;;;;;;;;4.00;1.50;;;;;11.20;100.00;100142.22;4957019;28;9463;-69
2023/12/24 11:28:09;;;;;;;;;1.25;1.25;;;;;11.24;100.00;100132.66;4935233;28;9570;-70
2023/12/24 11:31:03;;;;;;;;;3.50;2.75;;;;;11.26;100.00;100142.19;4941051;28;10507;-70